createdAt,value
2019-04-22T00:02:11.254Z,11.60
2019-04-22T00:04:50.922Z,11.50
2019-04-22T00:07:36.149Z,11.60
2019-04-22T00:10:06.301Z,11.60
2019-04-22T00:15:05.352Z,11.50
2019-04-22T00:20:11.532Z,11.40
2019-04-22T00:22:38.654Z,11.30
2019-04-22T00:25:14.438Z,11.30
2019-04-22T00:27:41.217Z,11.30
2019-04-22T00:30:22.034Z,11.20
2019-04-22T00:32:41.879Z,11.30
2019-04-22T00:35:19.552Z,11.30
2019-04-22T00:37:54.162Z,11.30
2019-04-22T00:40:21.037Z,11.40
2019-04-22T00:42:53.068Z,11.50
2019-04-22T00:45:26.973Z,11.40
2019-04-22T00:47:51.781Z,11.60
2019-04-22T00:50:23.776Z,11.60
2019-04-22T00:53:02.590Z,11.60
2019-04-22T00:55:24.769Z,11.60
2019-04-22T00:57:54.199Z,11.50
2019-04-22T01:00:24.693Z,11.50
2019-04-22T01:02:54.408Z,11.50
2019-04-22T01:05:27.305Z,11.50
2019-04-22T01:08:04.017Z,11.50
2019-04-22T01:10:33.841Z,11.40
2019-04-22T01:12:56.969Z,11.40
2019-04-22T01:15:31.943Z,11.40
2019-04-22T01:17:57.899Z,11.20
2019-04-22T01:20:58.933Z,11.20
2019-04-22T01:23:02.088Z,11.10
2019-04-22T01:25:24.933Z,11.10
2019-04-22T01:27:55.883Z,11.00
2019-04-22T01:30:22.150Z,11.00
2019-04-22T01:32:44.910Z,11.00
2019-04-22T01:35:26.294Z,11.00
2019-04-22T01:37:54.172Z,11.00
2019-04-22T01:40:39.117Z,11.00
2019-04-22T01:43:08.668Z,10.90
2019-04-22T01:45:39.262Z,10.90
2019-04-22T01:48:15.531Z,10.90
2019-04-22T01:50:36.856Z,10.90
2019-04-22T01:53:13.417Z,10.80
2019-04-22T01:55:44.163Z,10.90
2019-04-22T01:58:09.004Z,10.90
2019-04-22T02:00:44.960Z,10.80
2019-04-22T02:03:23.589Z,10.70
2019-04-22T02:05:46.761Z,10.70
2019-04-22T02:08:25.506Z,10.70
2019-04-22T02:10:50.862Z,10.70
2019-04-22T02:13:15.280Z,10.70
2019-04-22T02:15:52.442Z,10.60
2019-04-22T02:18:39.319Z,10.60
2019-04-22T02:24:39.771Z,10.40
2019-04-22T02:27:35.215Z,10.30
2019-04-22T02:30:13.937Z,10.20
2019-04-22T02:33:30.644Z,10.10
2019-04-22T02:38:59.386Z,10.00
2019-04-22T02:41:43.840Z,10.10
2019-04-22T02:44:12.938Z,10.10
2019-04-22T02:49:53.444Z,10.10
2019-04-22T03:00:46.684Z,9.90
2019-04-22T03:06:24.390Z,9.90
2019-04-22T03:08:53.760Z,9.80
2019-04-22T03:14:30.309Z,9.80
2019-04-22T03:17:25.362Z,9.70
2019-04-22T03:23:05.808Z,9.70
2019-04-22T03:28:49.713Z,9.60
2019-04-22T03:32:21.098Z,9.50
2019-04-22T03:35:20.341Z,9.50
2019-04-22T03:37:35.841Z,9.40
2019-04-22T03:43:23.935Z,9.40
2019-04-22T03:46:06.213Z,9.30
2019-04-22T03:48:47.319Z,9.20
2019-04-22T03:51:42.088Z,9.10
2019-04-22T03:54:26.454Z,9.10
2019-04-22T04:05:24.255Z,8.90
2019-04-22T04:15:38.439Z,8.80
2019-04-22T04:18:39.200Z,8.70
2019-04-22T04:24:19.791Z,8.70
2019-04-22T04:27:06.733Z,8.80
2019-04-22T04:29:51.474Z,8.70
2019-04-22T04:32:36.454Z,8.70
2019-04-22T04:38:24.342Z,8.70
2019-04-22T04:40:31.458Z,8.80
2019-04-22T04:42:58.539Z,8.80
2019-04-22T04:51:28.682Z,8.70
2019-04-22T04:53:41.951Z,8.80
2019-04-22T04:59:16.835Z,8.80
2019-04-22T05:02:09.934Z,8.80
2019-04-22T05:04:59.536Z,8.90
2019-04-22T05:07:38.359Z,9.00
2019-04-22T05:10:16.520Z,9.00
2019-04-22T05:13:35.221Z,9.00
2019-04-22T05:19:02.471Z,9.00
2019-04-22T05:21:40.212Z,9.20
2019-04-22T05:24:29.723Z,9.20
2019-04-22T05:33:02.879Z,9.40
2019-04-22T05:35:54.799Z,9.40
2019-04-22T05:38:49.812Z,9.50
2019-04-22T05:44:03.566Z,9.50
2019-04-22T05:46:46.201Z,9.60
2019-04-22T05:52:12.280Z,9.70
2019-04-22T05:54:38.541Z,9.70
2019-04-22T05:57:14.438Z,9.80
2019-04-22T06:00:06.368Z,9.90
2019-04-22T06:06:07.794Z,10.00
2019-04-22T06:08:51.058Z,10.20
2019-04-22T06:11:33.872Z,10.30
2019-04-22T06:14:31.087Z,10.40
2019-04-22T06:17:24.682Z,10.40
2019-04-22T06:20:09.205Z,10.50
2019-04-22T06:23:06.100Z,10.60
2019-04-22T06:26:07.987Z,10.70
2019-04-22T06:31:49.819Z,10.80
2019-04-22T06:34:27.033Z,10.90
2019-04-22T06:40:10.591Z,11.10
2019-04-22T06:42:58.034Z,11.30
2019-04-22T06:45:39.695Z,11.30
2019-04-22T06:48:33.134Z,11.40
2019-04-22T06:51:19.882Z,11.60
2019-04-22T06:54:14.771Z,11.70
2019-04-22T06:57:02.091Z,11.90
2019-04-22T06:59:52.046Z,11.90
2019-04-22T07:02:58.583Z,12.10
2019-04-22T07:05:18.089Z,12.20
2019-04-22T07:08:05.584Z,12.40
2019-04-22T07:10:50.638Z,12.50
2019-04-22T07:13:42.929Z,12.60
2019-04-22T07:16:39.429Z,12.70
2019-04-22T07:19:24.965Z,12.80
2019-04-22T07:22:11.222Z,13.00
2019-04-22T07:24:58.286Z,13.10
2019-04-22T07:27:52.115Z,13.10
2019-04-22T07:30:41.118Z,13.30
2019-04-22T07:36:42.127Z,13.50
2019-04-22T07:39:10.369Z,13.70
2019-04-22T07:41:59.211Z,13.80
2019-04-22T07:44:51.247Z,14.00
2019-04-22T07:47:44.422Z,14.10
2019-04-22T07:50:47.531Z,14.20
2019-04-22T07:53:18.196Z,14.30
2019-04-22T07:56:11.860Z,14.50
2019-04-22T07:59:05.725Z,14.60
2019-04-22T08:01:50.932Z,14.80
2019-04-22T08:04:56.024Z,14.90
2019-04-22T08:07:31.646Z,15.00
2019-04-22T08:13:11.736Z,15.20
2019-04-22T08:18:45.631Z,15.30
2019-04-22T08:21:45.486Z,15.40
2019-04-22T08:24:35.928Z,15.50
2019-04-22T08:27:15.512Z,15.60
2019-04-22T08:30:13.909Z,15.70
2019-04-22T08:33:04.783Z,15.80
2019-04-22T08:38:47.139Z,15.90
2019-04-22T08:44:28.235Z,16.10
2019-04-22T08:52:35.407Z,16.30
2019-04-22T08:55:17.941Z,16.40
2019-04-22T09:00:51.621Z,16.50
2019-04-22T09:06:11.272Z,16.70
2019-04-22T09:08:54.060Z,16.80
2019-04-22T09:14:15.615Z,16.90
2019-04-22T09:17:04.095Z,17.00
2019-04-22T09:19:44.104Z,17.10
2019-04-22T09:22:21.823Z,17.10
2019-04-22T09:24:55.213Z,17.10
2019-04-22T09:27:36.919Z,17.10
2019-04-22T09:30:20.325Z,17.10
2019-04-22T09:33:11.128Z,17.10
2019-04-22T09:36:00.095Z,17.20
2019-04-22T09:41:40.104Z,17.30
2019-04-22T09:44:34.754Z,17.40
2019-04-22T09:47:14.675Z,17.60
2019-04-22T09:49:53.064Z,17.60
2019-04-22T09:52:35.836Z,17.60
2019-04-22T09:55:21.484Z,17.50
2019-04-22T09:58:16.287Z,17.70
2019-04-22T10:04:16.051Z,17.70
2019-04-22T10:07:04.301Z,17.60
2019-04-22T10:12:42.632Z,17.60
2019-04-22T10:15:16.469Z,17.70
2019-04-22T10:17:47.415Z,17.50
2019-04-22T10:20:38.679Z,17.60
2019-04-22T10:23:25.291Z,17.70
2019-04-22T10:26:19.580Z,17.80
2019-04-22T10:29:05.922Z,17.90
2019-04-22T10:31:55.564Z,17.90
2019-04-22T10:37:28.167Z,17.80
2019-04-22T10:40:36.413Z,17.80
2019-04-22T10:43:25.406Z,17.80
2019-04-22T10:46:13.851Z,18.00
2019-04-22T10:49:04.248Z,18.10
2019-04-22T10:51:46.566Z,18.10
2019-04-22T10:54:27.389Z,18.00
2019-04-22T10:59:50.411Z,17.90
2019-04-22T11:05:14.442Z,18.10
2019-04-22T11:08:00.835Z,18.20
2019-04-22T11:10:56.372Z,18.20
2019-04-22T11:16:03.672Z,18.40
2019-04-22T11:18:45.797Z,18.40
2019-04-22T11:21:27.422Z,18.50
2019-04-22T11:24:08.559Z,18.40
2019-04-22T11:26:49.402Z,18.40
2019-04-22T11:29:31.808Z,18.40
2019-04-22T11:32:12.979Z,18.40
2019-04-22T11:34:53.918Z,18.40
2019-04-22T11:40:25.359Z,18.50
2019-04-22T11:43:01.781Z,18.20
2019-04-22T11:45:43.217Z,18.40
2019-04-22T11:48:24.417Z,18.50
2019-04-22T11:51:06.106Z,18.50
2019-04-22T11:53:47.063Z,18.70
2019-04-22T11:56:29.352Z,18.60
2019-04-22T11:59:10.928Z,18.40
2019-04-22T12:01:52.938Z,18.70
2019-04-22T12:04:22.135Z,18.90
2019-04-22T12:07:10.888Z,18.90
2019-04-22T12:09:59.775Z,19.10
2019-04-22T12:12:50.103Z,19.00
2019-04-22T12:15:38.929Z,19.20
2019-04-22T12:18:27.172Z,19.10
2019-04-22T12:21:15.412Z,19.10
2019-04-22T12:24:03.629Z,19.30
2019-04-22T12:26:52.724Z,19.30
2019-04-22T12:30:01.041Z,19.20
2019-04-22T12:32:50.541Z,19.10
2019-04-22T12:35:39.067Z,19.10
2019-04-22T12:38:27.428Z,19.20
2019-04-22T12:41:16.477Z,19.30
2019-04-22T12:44:05.596Z,19.30
2019-04-22T12:46:54.470Z,19.30
2019-04-22T12:49:46.959Z,19.40
2019-04-22T12:55:48.187Z,19.40
2019-04-22T12:58:36.256Z,19.20
2019-04-22T13:01:17.129Z,19.30
2019-04-22T13:04:05.166Z,19.20
2019-04-22T13:06:42.005Z,19.40
2019-04-22T13:09:23.417Z,19.40
2019-04-22T13:12:04.178Z,19.40
2019-04-22T13:14:34.799Z,19.40
2019-04-22T13:17:23.299Z,19.20
2019-04-22T13:20:15.075Z,19.20
2019-04-22T13:23:02.205Z,19.30
2019-04-22T13:25:52.667Z,19.30
2019-04-22T13:28:23.008Z,19.20
2019-04-22T13:30:54.465Z,19.20
2019-04-22T13:33:43.153Z,19.20
2019-04-22T13:36:32.835Z,19.30
2019-04-22T13:39:20.996Z,19.40
2019-04-22T13:42:12.506Z,19.40
2019-04-22T13:45:00.169Z,19.40
2019-04-22T13:48:02.968Z,19.50
2019-04-22T13:54:36.850Z,19.30
2019-04-22T13:56:22.258Z,19.20
2019-04-22T13:58:58.898Z,19.30
2019-04-22T14:04:36.732Z,19.30
2019-04-22T14:10:00.253Z,19.70
2019-04-22T14:12:42.534Z,19.60
2019-04-22T14:15:24.335Z,19.50
2019-04-22T14:18:05.518Z,19.60
2019-04-22T14:20:46.942Z,19.70
2019-04-22T14:23:28.649Z,19.70
2019-04-22T14:26:11.161Z,19.50
2019-04-22T14:28:41.571Z,19.60
2019-04-22T14:31:30.752Z,19.30
2019-04-22T14:34:20.799Z,19.30
2019-04-22T14:37:09.951Z,19.20
2019-04-22T14:40:00.634Z,19.30
2019-04-22T14:43:10.434Z,19.50
2019-04-22T14:46:07.084Z,19.20
2019-04-22T14:48:49.867Z,19.30
2019-04-22T14:51:39.181Z,19.20
2019-04-22T14:54:22.650Z,19.00
2019-04-22T14:56:58.986Z,19.00
2019-04-22T14:59:48.312Z,19.10
2019-04-22T15:02:31.944Z,19.10
2019-04-22T15:05:14.352Z,18.90
2019-04-22T15:07:55.086Z,18.80
2019-04-22T15:13:18.381Z,18.90
2019-04-22T15:16:25.665Z,19.00
2019-04-22T15:19:25.766Z,19.00
2019-04-22T15:22:08.344Z,18.80
2019-04-22T15:24:50.231Z,18.60
2019-04-22T15:27:31.208Z,18.70
2019-04-22T15:30:12.367Z,18.70
2019-04-22T15:32:53.755Z,18.70
2019-04-22T15:38:17.444Z,18.70
2019-04-22T15:40:58.986Z,18.70
2019-04-22T15:43:39.635Z,18.50
2019-04-22T15:46:09.838Z,18.50
2019-04-22T15:48:59.926Z,18.30
2019-04-22T15:51:29.140Z,18.50
2019-04-22T15:54:19.267Z,18.50
2019-04-22T15:57:08.900Z,18.40
2019-04-22T16:00:14.758Z,18.90
2019-04-22T16:02:47.835Z,19.50
2019-04-22T16:05:37.452Z,20.50
2019-04-22T16:08:26.736Z,20.60
2019-04-22T16:11:15.918Z,20.40
2019-04-22T16:14:06.428Z,20.20
2019-04-22T16:16:56.404Z,20.00
2019-04-22T16:19:45.360Z,20.50
2019-04-22T16:22:55.035Z,20.60
2019-04-22T16:29:05.297Z,19.90
2019-04-22T16:31:55.597Z,19.80
2019-04-22T16:34:45.788Z,20.10
2019-04-22T16:37:34.781Z,20.10
2019-04-22T16:40:24.996Z,19.90
2019-04-22T16:43:14.137Z,19.50
2019-04-22T16:46:03.355Z,19.80
2019-04-22T16:48:53.702Z,20.10
2019-04-22T16:51:42.286Z,19.70
2019-04-22T16:54:32.820Z,19.80
2019-04-22T16:57:21.920Z,19.90
2019-04-22T17:00:13.117Z,19.70
2019-04-22T17:03:22.502Z,19.30
2019-04-22T17:06:23.439Z,19.00
2019-04-22T17:09:06.704Z,18.60
2019-04-22T17:14:27.228Z,17.40
2019-04-22T17:16:50.500Z,17.10
2019-04-22T17:19:39.606Z,16.80
2019-04-22T17:22:08.718Z,16.60
2019-04-22T17:24:58.163Z,16.40
2019-04-22T17:27:28.752Z,16.30
2019-04-22T17:30:17.253Z,16.10
2019-04-22T17:33:05.463Z,16.00
2019-04-22T17:35:36.030Z,15.80
2019-04-22T17:38:36.271Z,15.80
2019-04-22T17:41:24.287Z,15.70
2019-04-22T17:44:48.733Z,15.60
2019-04-22T17:47:38.358Z,15.50
2019-04-22T17:53:46.434Z,15.20
2019-04-22T17:56:33.701Z,15.20
2019-04-22T17:59:20.372Z,15.00
2019-04-22T18:02:06.766Z,14.90
2019-04-22T18:04:48.100Z,14.80
2019-04-22T18:07:43.040Z,14.70
2019-04-22T18:13:02.022Z,14.60
2019-04-22T18:15:48.719Z,14.40
2019-04-22T18:18:36.968Z,14.30
2019-04-22T18:21:23.207Z,14.20
2019-04-22T18:24:05.638Z,14.10
2019-04-22T18:29:52.037Z,14.00
2019-04-22T18:32:47.137Z,13.90
2019-04-22T18:35:33.976Z,13.80
2019-04-22T18:38:10.988Z,13.70
2019-04-22T18:40:54.511Z,13.70
2019-04-22T18:43:47.893Z,13.60
2019-04-22T18:46:36.976Z,13.50
2019-04-22T18:49:21.639Z,13.50
2019-04-22T18:52:31.881Z,13.40
2019-04-22T18:55:38.814Z,13.20
2019-04-22T18:58:24.676Z,13.10
2019-04-22T19:04:19.966Z,13.00
2019-04-22T19:07:24.318Z,12.90
2019-04-22T19:10:10.616Z,12.90
2019-04-22T19:15:33.058Z,12.90
2019-04-22T19:18:18.187Z,12.80
2019-04-22T19:26:32.408Z,12.60
2019-04-22T19:31:45.529Z,12.50
2019-04-22T19:37:10.828Z,12.30
2019-04-22T19:48:03.667Z,12.20
2019-04-22T19:50:52.939Z,12.10
2019-04-22T19:53:19.505Z,12.10
2019-04-22T19:55:48.183Z,12.00
2019-04-22T20:01:38.635Z,11.90
2019-04-22T20:07:27.811Z,11.80
2019-04-22T20:10:16.212Z,11.80
2019-04-22T20:12:53.084Z,11.70
2019-04-22T20:15:34.504Z,11.80
2019-04-22T20:21:17.946Z,11.70
2019-04-22T20:23:53.715Z,11.70
2019-04-22T20:26:32.861Z,11.60
2019-04-22T20:29:31.085Z,11.60
2019-04-22T20:32:18.781Z,11.60
2019-04-22T20:35:09.279Z,11.50
2019-04-22T20:37:57.938Z,11.50
2019-04-22T20:40:42.618Z,11.50
2019-04-22T20:43:40.334Z,11.40
2019-04-22T20:46:24.259Z,11.40
2019-04-22T20:49:15.262Z,11.40
2019-04-22T20:52:08.260Z,11.40
2019-04-22T20:54:50.976Z,11.40
2019-04-22T20:57:50.127Z,11.40
2019-04-22T21:00:34.049Z,11.30
2019-04-22T21:03:16.088Z,11.20
2019-04-22T21:06:11.548Z,11.20
2019-04-22T21:09:01.141Z,11.20
2019-04-22T21:11:34.346Z,11.10
2019-04-22T21:14:21.304Z,11.00
2019-04-22T21:17:10.241Z,11.00
2019-04-22T21:19:43.348Z,11.10
2019-04-22T21:22:08.057Z,11.10
2019-04-22T21:24:53.644Z,11.00
2019-04-22T21:27:51.160Z,11.00
2019-04-22T21:30:34.250Z,11.00
2019-04-22T21:33:18.623Z,11.00
2019-04-22T21:36:23.540Z,11.00
2019-04-22T21:39:05.486Z,10.90
2019-04-22T21:41:52.497Z,11.00
2019-04-22T21:44:45.324Z,10.90
2019-04-22T21:50:54.283Z,11.00
2019-04-22T21:53:28.676Z,11.00
2019-04-22T21:56:29.038Z,11.10
2019-04-22T21:59:07.958Z,11.10
2019-04-22T22:01:56.910Z,11.10
2019-04-22T22:04:25.059Z,11.00
2019-04-22T22:06:50.163Z,11.10
2019-04-22T22:09:43.959Z,11.00
2019-04-22T22:12:13.165Z,11.00
2019-04-22T22:14:46.373Z,11.00
2019-04-22T22:17:31.043Z,11.00
2019-04-22T22:20:20.790Z,11.00
2019-04-22T22:23:00.323Z,11.00
2019-04-22T22:25:43.760Z,11.00
2019-04-22T22:31:10.390Z,10.90
2019-04-22T22:33:40.155Z,11.00
2019-04-22T22:36:23.739Z,10.90
2019-04-22T22:39:08.634Z,10.90
2019-04-22T22:41:45.906Z,10.80
2019-04-22T22:44:39.215Z,10.80
2019-04-22T22:47:39.413Z,10.80
2019-04-22T22:50:30.235Z,10.80
2019-04-22T22:56:16.062Z,10.80
2019-04-22T23:01:54.521Z,10.70
2019-04-22T23:04:54.519Z,10.70
2019-04-22T23:07:40.940Z,10.70
2019-04-22T23:10:17.591Z,10.70
2019-04-22T23:12:53.811Z,10.70
2019-04-22T23:15:39.003Z,10.60
2019-04-22T23:18:12.156Z,10.60
2019-04-22T23:21:01.458Z,10.50
2019-04-22T23:24:12.933Z,10.60
2019-04-22T23:30:15.985Z,10.50
2019-04-22T23:33:09.902Z,10.50
2019-04-22T23:44:14.232Z,10.40
2019-04-22T23:47:11.207Z,10.50
2019-04-22T23:50:09.145Z,10.50
2019-04-22T23:53:02.259Z,10.40
2019-04-22T23:55:33.367Z,10.50
2019-04-22T23:58:38.289Z,10.40
